Estación de El Refugio

Ultimos registro cada 15 minutos 53
Estación Fecha / Hora Temperatura Humedad Lluvia Velocidad Dirección Radiación Presion
53 El Refugio 06-05-2026 13:15 13,5 93 0,4 0 71 47 1038,6
52 El Refugio 06-05-2026 13:00 13,6 93 1,6 0 308 63 1038,4
51 El Refugio 06-05-2026 12:45 13,6 92 2,6 0 308 97 1038,3
50 El Refugio 06-05-2026 12:15 13,6 91 1,2 0 308 33 1038,1
49 El Refugio 06-05-2026 12:00 14,1 88 0 0 308 30 1037,8
48 El Refugio 06-05-2026 11:45 14,1 88 0 0 308 30 1037,8
47 El Refugio 06-05-2026 11:30 14,6 86 1 0 308 30 1037,4
46 El Refugio 06-05-2026 11:15 14,9 82 0,2 0 308 26 1037,7
45 El Refugio 06-05-2026 11:00 15,4 77 0 0 272 32 1037,2
44 El Refugio 06-05-2026 10:45 15,4 77 0 0 272 32 1037,2
43 El Refugio 06-05-2026 10:30 16,3 75 0 0 228 47 1036,7
42 El Refugio 06-05-2026 10:15 15,8 77 0 0 233 213 1036
41 El Refugio 06-05-2026 10:00 15,3 78 0 0 237 141 1036,5
40 El Refugio 06-05-2026 09:45 15,3 78 0 0 237 141 1036,5
39 El Refugio 06-05-2026 09:30 15,5 79 0 0 238 155 1036,8
38 El Refugio 06-05-2026 09:15 14,8 83 0 0 48 371 1037
37 El Refugio 06-05-2026 09:00 11,2 94 0 0 296 65 1037,2
36 El Refugio 06-05-2026 08:45 11,2 94 0 0 296 65 1037,2
35 El Refugio 06-05-2026 08:30 9,7 94 0 0 296 155 1037
34 El Refugio 06-05-2026 08:15 8,8 94 0 0 296 97 1037
33 El Refugio 06-05-2026 08:00 8,2 92 0 0 296 9 1036,8
32 El Refugio 06-05-2026 07:45 8,2 92 0 0 296 9 1036,8
31 El Refugio 06-05-2026 07:30 8,2 92 0 0 296 0 1037
30 El Refugio 06-05-2026 07:15 8,2 92 0 0 296 0 1036,5
29 El Refugio 06-05-2026 07:00 8,2 91 0 0 296 0 1036,2
28 El Refugio 06-05-2026 06:45 8,2 91 0 0 296 0 1036,2
27 El Refugio 06-05-2026 06:30 8,4 90 0 0 296 0 1035,9
26 El Refugio 06-05-2026 06:15 8,9 91 0 0 296 0 1035,7
25 El Refugio 06-05-2026 06:00 9 91 0 0 296 0 1035,5
24 El Refugio 06-05-2026 05:45 9 91 0 0 296 0 1035,5
23 El Refugio 06-05-2026 05:30 8,9 91 0 0 296 0 1035,3
22 El Refugio 06-05-2026 05:15 8,7 91 0 0 296 0 1035,3
21 El Refugio 06-05-2026 05:00 8,6 90 0 0 296 0 1034,6
20 El Refugio 06-05-2026 04:45 8,6 90 0 0 296 0 1034,6
19 El Refugio 06-05-2026 04:30 8,9 90 0 0 296 0 1034,4
18 El Refugio 06-05-2026 04:15 9,2 90 0 0 296 0 1034,6
17 El Refugio 06-05-2026 04:00 9,1 91 0 0 296 0 1034,8
16 El Refugio 06-05-2026 03:45 9,1 91 0 0 296 0 1034,8
15 El Refugio 06-05-2026 03:30 8,9 88 0 0 296 0 1034,7
14 El Refugio 06-05-2026 03:15 9,2 87 0 0 296 0 1034,5
13 El Refugio 06-05-2026 03:00 10,2 88 0 0 296 0 1034,5
12 El Refugio 06-05-2026 02:45 10,2 88 0 0 296 0 1034,5
11 El Refugio 06-05-2026 02:30 10,3 88 0 0 296 0 1034,6
10 El Refugio 06-05-2026 02:15 10,5 88 0 0 296 0 1034,8
9 El Refugio 06-05-2026 02:00 10,9 87 0 0 296 0 1034,9
8 El Refugio 06-05-2026 01:45 10,9 87 0 0 296 0 1034,9
7 El Refugio 06-05-2026 01:30 11,2 88 0 0 296 0 1034,9
6 El Refugio 06-05-2026 01:15 11,2 88 0 0 296 0 1035
5 El Refugio 06-05-2026 01:00 11,3 88 0 0 296 0 1035,4
4 El Refugio 06-05-2026 00:45 11,3 88 0 0 296 0 1035,4
3 El Refugio 06-05-2026 00:30 11,3 87 0 0 296 0 1035,3
2 El Refugio 06-05-2026 00:15 11,4 87 0 0 296 0 1035,5
1 El Refugio 06-05-2026 00:00 11,8 85 0 0 296 0 1035,6